Hays Regional Airport
KHYS : now visible

Airfield :











YOU CAN JOIN US ON...

 
LOGIN :

Register | Disclaimer

   EN    FR    IT 

 









Legend :    VFR   Marginal VFR   IFR   Intensive IFR   Very Intensive IFR
Visi :
Ceiling :
>= 8 km
>= 3000ft
5 to 8 km
1000 to 3000 ft
1500m to 5 km
500 to 1000 ft
800 to 1500m
200 to 500 ft
< 800m
< 200 ft
Symbols :   Thunderstorms  Fog  Heavy snow  Heavy precipitations  Wind > 20 kt






- Airport Elevation : 1999 ft


KHYS - Hays Regional

CURRENT METAR :
  • 140056Z AUTO 29004KT 10SM CLR 04/M03 A2987 RMK AO2 SLP129 T00391028

EXPIRED METARs :
  • 132356Z AUTO 32007KT 10SM CLR 06/M02 A2985 RMK AO2 SLP124 T00561017 10144 20056 53023
  • 132256Z AUTO 36010KT 10SM CLR 09/M01 A2983 RMK AO2 SLP115 T00891006

TAF KHYS
Valid from the 13 at 23:00 until the 15 at 00:00 UTC


132328Z 1323/1424 34010G20KT P6SM SCT100 SCT250
FM140300 34010KT P6SM SCT250
FM140600 35008KT 4SM BR OVC020
FM141200 01008KT 2SM BR OVC010
FM141500 04004KT P6SM OVC030
FM141800 09008KT P6SM OVC040



MET'MAP, your aeronautical weather chart ! - Copyright ORBIFLY December 2007 - Disclaimer

ORBIFLY MET'MAP TEAM :

Programming & Development : Alexandra Zaïnal
Concept & original design : Baudouin d'Aumeries
Assistance for programming : Marc-Olivier Méhu
Technical & hardware support : Manuel Goepfert

Contact : metmap@orbifly.com




SOURCES & CREDITS :

   NOAA       Earth
Advisory